sensor_id;sensor_type;location;lat;lon;timestamp;temperature;humidity
60469;DHT22;46316;47.582;10.238;2022-07-10T00:02:21;16.80;74.60
60469;DHT22;46316;47.582;10.238;2022-07-10T00:04:46;16.80;74.40
60469;DHT22;46316;47.582;10.238;2022-07-10T00:07:12;16.80;74.60
60469;DHT22;46316;47.582;10.238;2022-07-10T00:09:37;16.80;74.80
60469;DHT22;46316;47.582;10.238;2022-07-10T00:12:03;16.80;74.80
60469;DHT22;46316;47.582;10.238;2022-07-10T00:14:30;16.70;75.10
60469;DHT22;46316;47.582;10.238;2022-07-10T00:16:56;16.70;75.70
60469;DHT22;46316;47.582;10.238;2022-07-10T00:19:21;16.70;75.80
60469;DHT22;46316;47.582;10.238;2022-07-10T00:21:47;16.60;76.10
60469;DHT22;46316;47.582;10.238;2022-07-10T00:24:12;16.70;75.60
60469;DHT22;46316;47.582;10.238;2022-07-10T00:26:38;16.70;75.40
60469;DHT22;46316;47.582;10.238;2022-07-10T00:29:03;16.70;75.50
60469;DHT22;46316;47.582;10.238;2022-07-10T00:31:29;16.80;75.50
60469;DHT22;46316;47.582;10.238;2022-07-10T00:33:54;16.80;75.50
60469;DHT22;46316;47.582;10.238;2022-07-10T00:36:20;16.70;75.70
60469;DHT22;46316;47.582;10.238;2022-07-10T00:38:45;16.80;73.90
60469;DHT22;46316;47.582;10.238;2022-07-10T00:41:11;16.80;73.10
60469;DHT22;46316;47.582;10.238;2022-07-10T00:43:53;16.80;74.20
60469;DHT22;46316;47.582;10.238;2022-07-10T00:46:19;16.80;73.60
60469;DHT22;46316;47.582;10.238;2022-07-10T00:48:48;16.90;74.30
60469;DHT22;46316;47.582;10.238;2022-07-10T00:51:15;16.90;75.10
60469;DHT22;46316;47.582;10.238;2022-07-10T00:53:42;16.80;75.30
60469;DHT22;46316;47.582;10.238;2022-07-10T00:56:09;16.80;74.90
60469;DHT22;46316;47.582;10.238;2022-07-10T00:58:35;16.80;74.30
60469;DHT22;46316;47.582;10.238;2022-07-10T01:01:02;16.80;74.60
60469;DHT22;46316;47.582;10.238;2022-07-10T01:03:27;16.90;74.10
60469;DHT22;46316;47.582;10.238;2022-07-10T01:05:53;16.90;73.80
60469;DHT22;46316;47.582;10.238;2022-07-10T01:08:19;16.90;74.60
60469;DHT22;46316;47.582;10.238;2022-07-10T01:10:45;16.80;75.10
60469;DHT22;46316;47.582;10.238;2022-07-10T01:13:13;16.70;74.60
60469;DHT22;46316;47.582;10.238;2022-07-10T01:15:38;16.70;74.40
60469;DHT22;46316;47.582;10.238;2022-07-10T01:18:04;16.60;74.10
60469;DHT22;46316;47.582;10.238;2022-07-10T01:20:30;16.50;74.60
60469;DHT22;46316;47.582;10.238;2022-07-10T01:22:56;16.50;73.60
60469;DHT22;46316;47.582;10.238;2022-07-10T01:25:22;16.40;73.40
60469;DHT22;46316;47.582;10.238;2022-07-10T01:27:47;16.30;72.50
60469;DHT22;46316;47.582;10.238;2022-07-10T01:30:13;16.30;72.70
60469;DHT22;46316;47.582;10.238;2022-07-10T01:32:40;16.20;73.20
60469;DHT22;46316;47.582;10.238;2022-07-10T01:35:06;16.30;73.40
60469;DHT22;46316;47.582;10.238;2022-07-10T01:37:32;16.30;73.90
60469;DHT22;46316;47.582;10.238;2022-07-10T01:39:58;16.20;73.80
60469;DHT22;46316;47.582;10.238;2022-07-10T01:42:24;16.20;74.50
60469;DHT22;46316;47.582;10.238;2022-07-10T01:44:49;16.20;74.00
60469;DHT22;46316;47.582;10.238;2022-07-10T01:47:15;16.20;74.40
60469;DHT22;46316;47.582;10.238;2022-07-10T01:49:40;16.20;74.80
60469;DHT22;46316;47.582;10.238;2022-07-10T01:52:06;16.20;75.10
60469;DHT22;46316;47.582;10.238;2022-07-10T01:54:32;16.10;74.80
60469;DHT22;46316;47.582;10.238;2022-07-10T01:56:57;16.10;75.10
60469;DHT22;46316;47.582;10.238;2022-07-10T01:59:23;16.10;75.30
60469;DHT22;46316;47.582;10.238;2022-07-10T02:01:48;16.00;75.30
60469;DHT22;46316;47.582;10.238;2022-07-10T02:04:14;16.00;75.30
60469;DHT22;46316;47.582;10.238;2022-07-10T02:06:58;15.90;75.80
60469;DHT22;46316;47.582;10.238;2022-07-10T02:09:23;15.90;76.00
60469;DHT22;46316;47.582;10.238;2022-07-10T02:11:49;15.80;76.00
60469;DHT22;46316;47.582;10.238;2022-07-10T02:14:15;15.70;76.40
60469;DHT22;46316;47.582;10.238;2022-07-10T02:16:40;15.60;76.80
60469;DHT22;46316;47.582;10.238;2022-07-10T02:19:06;15.60;77.30
60469;DHT22;46316;47.582;10.238;2022-07-10T02:21:31;15.50;77.30
60469;DHT22;46316;47.582;10.238;2022-07-10T02:23:57;15.50;77.60
60469;DHT22;46316;47.582;10.238;2022-07-10T02:26:22;15.50;77.70
60469;DHT22;46316;47.582;10.238;2022-07-10T02:28:48;15.50;77.70
60469;DHT22;46316;47.582;10.238;2022-07-10T02:31:14;15.50;77.80
60469;DHT22;46316;47.582;10.238;2022-07-10T02:33:39;15.50;77.80
60469;DHT22;46316;47.582;10.238;2022-07-10T02:36:05;15.60;78.00
60469;DHT22;46316;47.582;10.238;2022-07-10T02:38:30;15.70;78.20
60469;DHT22;46316;47.582;10.238;2022-07-10T02:40:56;15.70;77.90
60469;DHT22;46316;47.582;10.238;2022-07-10T02:43:21;15.70;77.50
60469;DHT22;46316;47.582;10.238;2022-07-10T02:45:47;15.80;78.00
60469;DHT22;46316;47.582;10.238;2022-07-10T02:48:14;15.70;77.50
60469;DHT22;46316;47.582;10.238;2022-07-10T02:50:41;15.80;77.80
60469;DHT22;46316;47.582;10.238;2022-07-10T02:53:06;15.80;78.30
60469;DHT22;46316;47.582;10.238;2022-07-10T02:55:32;15.80;78.60
60469;DHT22;46316;47.582;10.238;2022-07-10T02:57:58;15.80;78.50
60469;DHT22;46316;47.582;10.238;2022-07-10T03:00:25;15.80;78.70
60469;DHT22;46316;47.582;10.238;2022-07-10T03:02:52;15.80;78.50
60469;DHT22;46316;47.582;10.238;2022-07-10T03:05:17;15.70;78.30
60469;DHT22;46316;47.582;10.238;2022-07-10T03:07:43;15.80;78.90
60469;DHT22;46316;47.582;10.238;2022-07-10T03:10:09;15.80;78.40
60469;DHT22;46316;47.582;10.238;2022-07-10T03:12:35;15.80;77.80
60469;DHT22;46316;47.582;10.238;2022-07-10T03:15:02;15.70;78.00
60469;DHT22;46316;47.582;10.238;2022-07-10T03:17:28;15.60;78.50
60469;DHT22;46316;47.582;10.238;2022-07-10T03:19:53;15.60;78.60
60469;DHT22;46316;47.582;10.238;2022-07-10T03:22:19;15.60;79.20
60469;DHT22;46316;47.582;10.238;2022-07-10T03:24:45;15.50;79.60
60469;DHT22;46316;47.582;10.238;2022-07-10T03:27:15;15.50;79.90
60469;DHT22;46316;47.582;10.238;2022-07-10T03:29:41;15.60;79.60
60469;DHT22;46316;47.582;10.238;2022-07-10T03:32:07;15.50;79.80
60469;DHT22;46316;47.582;10.238;2022-07-10T03:34:33;15.50;79.80
60469;DHT22;46316;47.582;10.238;2022-07-10T03:37:00;15.50;80.20
60469;DHT22;46316;47.582;10.238;2022-07-10T03:39:28;15.50;80.00
60469;DHT22;46316;47.582;10.238;2022-07-10T03:41:53;15.40;80.00
60469;DHT22;46316;47.582;10.238;2022-07-10T03:44:19;15.40;80.00
60469;DHT22;46316;47.582;10.238;2022-07-10T03:46:45;15.50;80.40
60469;DHT22;46316;47.582;10.238;2022-07-10T03:49:11;15.50;80.10
60469;DHT22;46316;47.582;10.238;2022-07-10T03:51:37;15.50;79.80
60469;DHT22;46316;47.582;10.238;2022-07-10T03:54:02;15.50;79.90
60469;DHT22;46316;47.582;10.238;2022-07-10T03:56:28;15.60;79.50
60469;DHT22;46316;47.582;10.238;2022-07-10T03:59:13;15.60;79.40
60469;DHT22;46316;47.582;10.238;2022-07-10T04:01:38;15.80;78.80
60469;DHT22;46316;47.582;10.238;2022-07-10T04:04:04;15.80;78.70
60469;DHT22;46316;47.582;10.238;2022-07-10T04:06:29;15.80;78.70
60469;DHT22;46316;47.582;10.238;2022-07-10T04:08:55;15.80;79.00
60469;DHT22;46316;47.582;10.238;2022-07-10T04:11:21;15.80;79.00
60469;DHT22;46316;47.582;10.238;2022-07-10T04:13:46;15.60;79.50
60469;DHT22;46316;47.582;10.238;2022-07-10T04:16:12;15.60;79.40
60469;DHT22;46316;47.582;10.238;2022-07-10T04:18:41;15.60;79.60
60469;DHT22;46316;47.582;10.238;2022-07-10T04:21:07;15.60;79.60
60469;DHT22;46316;47.582;10.238;2022-07-10T04:23:33;15.50;79.60
60469;DHT22;46316;47.582;10.238;2022-07-10T04:26:00;15.60;80.20
60469;DHT22;46316;47.582;10.238;2022-07-10T04:28:26;15.60;79.20
60469;DHT22;46316;47.582;10.238;2022-07-10T04:30:51;15.60;79.40
60469;DHT22;46316;47.582;10.238;2022-07-10T04:33:17;15.60;79.70
60469;DHT22;46316;47.582;10.238;2022-07-10T04:35:43;15.60;79.70
60469;DHT22;46316;47.582;10.238;2022-07-10T04:38:09;15.70;80.50
60469;DHT22;46316;47.582;10.238;2022-07-10T04:40:35;15.60;80.20
60469;DHT22;46316;47.582;10.238;2022-07-10T04:43:00;15.60;80.60
60469;DHT22;46316;47.582;10.238;2022-07-10T04:45:26;15.60;80.50
60469;DHT22;46316;47.582;10.238;2022-07-10T04:47:51;15.60;80.60
60469;DHT22;46316;47.582;10.238;2022-07-10T04:50:17;15.60;80.00
60469;DHT22;46316;47.582;10.238;2022-07-10T04:52:43;15.60;80.10
60469;DHT22;46316;47.582;10.238;2022-07-10T04:55:09;15.70;80.00
60469;DHT22;46316;47.582;10.238;2022-07-10T04:57:34;15.70;80.60
60469;DHT22;46316;47.582;10.238;2022-07-10T05:00:00;15.70;80.60
60469;DHT22;46316;47.582;10.238;2022-07-10T05:02:26;15.70;81.20
60469;DHT22;46316;47.582;10.238;2022-07-10T05:04:51;15.70;81.20
60469;DHT22;46316;47.582;10.238;2022-07-10T05:07:18;15.70;81.10
60469;DHT22;46316;47.582;10.238;2022-07-10T05:09:44;15.80;80.40
60469;DHT22;46316;47.582;10.238;2022-07-10T05:12:09;15.90;80.10
60469;DHT22;46316;47.582;10.238;2022-07-10T05:14:35;15.90;80.20
60469;DHT22;46316;47.582;10.238;2022-07-10T05:17:00;15.80;80.50
60469;DHT22;46316;47.582;10.238;2022-07-10T05:19:26;15.80;81.10
60469;DHT22;46316;47.582;10.238;2022-07-10T05:21:51;15.80;80.80
60469;DHT22;46316;47.582;10.238;2022-07-10T05:24:17;15.70;80.70
60469;DHT22;46316;47.582;10.238;2022-07-10T05:26:43;15.70;81.20
60469;DHT22;46316;47.582;10.238;2022-07-10T05:29:08;15.70;81.10
60469;DHT22;46316;47.582;10.238;2022-07-10T05:31:34;15.70;81.10
60469;DHT22;46316;47.582;10.238;2022-07-10T05:33:59;15.70;81.70
60469;DHT22;46316;47.582;10.238;2022-07-10T05:36:25;15.70;81.30
60469;DHT22;46316;47.582;10.238;2022-07-10T05:38:50;15.70;81.60
60469;DHT22;46316;47.582;10.238;2022-07-10T05:41:16;15.70;81.90
60469;DHT22;46316;47.582;10.238;2022-07-10T05:43:42;15.70;81.60
60469;DHT22;46316;47.582;10.238;2022-07-10T05:46:07;15.80;81.90
60469;DHT22;46316;47.582;10.238;2022-07-10T05:48:33;15.80;82.10
60469;DHT22;46316;47.582;10.238;2022-07-10T05:50:59;15.80;82.10
60469;DHT22;46316;47.582;10.238;2022-07-10T05:53:24;15.80;82.40
60469;DHT22;46316;47.582;10.238;2022-07-10T05:55:50;15.70;82.00
60469;DHT22;46316;47.582;10.238;2022-07-10T05:58:16;15.70;82.10
60469;DHT22;46316;47.582;10.238;2022-07-10T06:00:41;15.70;82.40
60469;DHT22;46316;47.582;10.238;2022-07-10T06:03:09;15.70;82.70
60469;DHT22;46316;47.582;10.238;2022-07-10T06:05:35;15.60;83.10
60469;DHT22;46316;47.582;10.238;2022-07-10T06:08:01;15.70;83.20
60469;DHT22;46316;47.582;10.238;2022-07-10T06:10:26;15.70;83.70
60469;DHT22;46316;47.582;10.238;2022-07-10T06:12:52;15.70;83.90
60469;DHT22;46316;47.582;10.238;2022-07-10T06:15:18;15.70;83.60
60469;DHT22;46316;47.582;10.238;2022-07-10T06:17:43;15.80;84.40
60469;DHT22;46316;47.582;10.238;2022-07-10T06:20:09;15.80;84.50
60469;DHT22;46316;47.582;10.238;2022-07-10T06:22:35;15.80;84.00
60469;DHT22;46316;47.582;10.238;2022-07-10T06:25:03;15.80;84.30
60469;DHT22;46316;47.582;10.238;2022-07-10T06:27:29;15.90;84.20
60469;DHT22;46316;47.582;10.238;2022-07-10T06:29:55;15.90;83.70
60469;DHT22;46316;47.582;10.238;2022-07-10T06:32:21;15.90;82.80
60469;DHT22;46316;47.582;10.238;2022-07-10T06:34:47;16.00;83.00
60469;DHT22;46316;47.582;10.238;2022-07-10T06:37:12;16.20;83.30
60469;DHT22;46316;47.582;10.238;2022-07-10T06:39:38;16.40;83.20
60469;DHT22;46316;47.582;10.238;2022-07-10T06:42:05;16.70;82.30
60469;DHT22;46316;47.582;10.238;2022-07-10T06:44:31;16.70;82.40
60469;DHT22;46316;47.582;10.238;2022-07-10T06:46:57;16.70;82.50
60469;DHT22;46316;47.582;10.238;2022-07-10T06:49:41;16.80;82.30
60469;DHT22;46316;47.582;10.238;2022-07-10T06:52:08;16.90;81.70
60469;DHT22;46316;47.582;10.238;2022-07-10T06:54:33;16.90;81.00
60469;DHT22;46316;47.582;10.238;2022-07-10T06:56:59;16.90;80.70
60469;DHT22;46316;47.582;10.238;2022-07-10T06:59:25;17.10;80.70
60469;DHT22;46316;47.582;10.238;2022-07-10T07:01:50;17.20;79.10
60469;DHT22;46316;47.582;10.238;2022-07-10T07:04:16;17.20;79.10
60469;DHT22;46316;47.582;10.238;2022-07-10T07:06:41;17.20;79.00
60469;DHT22;46316;47.582;10.238;2022-07-10T07:09:07;17.10;79.30
60469;DHT22;46316;47.582;10.238;2022-07-10T07:11:32;17.10;79.10
60469;DHT22;46316;47.582;10.238;2022-07-10T07:13:58;17.00;79.20
60469;DHT22;46316;47.582;10.238;2022-07-10T07:16:24;17.00;79.60
60469;DHT22;46316;47.582;10.238;2022-07-10T07:19:03;17.00;79.70
60469;DHT22;46316;47.582;10.238;2022-07-10T07:21:30;17.00;79.00
60469;DHT22;46316;47.582;10.238;2022-07-10T07:24:15;17.00;78.40
60469;DHT22;46316;47.582;10.238;2022-07-10T07:26:41;17.00;78.10
60469;DHT22;46316;47.582;10.238;2022-07-10T07:29:07;17.10;77.30
60469;DHT22;46316;47.582;10.238;2022-07-10T07:31:32;17.00;76.30
60469;DHT22;46316;47.582;10.238;2022-07-10T07:33:58;17.00;77.00
60469;DHT22;46316;47.582;10.238;2022-07-10T07:36:23;17.00;76.10
60469;DHT22;46316;47.582;10.238;2022-07-10T07:38:49;16.90;76.00
60469;DHT22;46316;47.582;10.238;2022-07-10T07:41:14;16.90;76.30
60469;DHT22;46316;47.582;10.238;2022-07-10T07:43:40;17.00;76.80
60469;DHT22;46316;47.582;10.238;2022-07-10T07:46:06;17.00;76.60
60469;DHT22;46316;47.582;10.238;2022-07-10T07:48:32;16.90;76.10
60469;DHT22;46316;47.582;10.238;2022-07-10T07:50:57;16.90;76.20
60469;DHT22;46316;47.582;10.238;2022-07-10T07:53:23;16.80;77.70
60469;DHT22;46316;47.582;10.238;2022-07-10T07:55:49;16.70;75.60
60469;DHT22;46316;47.582;10.238;2022-07-10T07:58:15;16.50;76.90
60469;DHT22;46316;47.582;10.238;2022-07-10T08:00:41;16.40;77.00
60469;DHT22;46316;47.582;10.238;2022-07-10T08:03:07;16.40;77.00
60469;DHT22;46316;47.582;10.238;2022-07-10T08:05:33;16.40;77.50
60469;DHT22;46316;47.582;10.238;2022-07-10T08:07:59;16.40;77.30
60469;DHT22;46316;47.582;10.238;2022-07-10T08:10:30;16.40;77.20
60469;DHT22;46316;47.582;10.238;2022-07-10T08:12:56;16.40;77.10
60469;DHT22;46316;47.582;10.238;2022-07-10T08:15:22;16.30;76.80
60469;DHT22;46316;47.582;10.238;2022-07-10T08:17:49;16.30;76.90
60469;DHT22;46316;47.582;10.238;2022-07-10T08:20:15;16.40;76.70
60469;DHT22;46316;47.582;10.238;2022-07-10T08:22:41;16.40;76.20
60469;DHT22;46316;47.582;10.238;2022-07-10T08:25:08;16.50;77.50
60469;DHT22;46316;47.582;10.238;2022-07-10T08:27:34;16.70;76.90
60469;DHT22;46316;47.582;10.238;2022-07-10T08:29:59;16.60;76.80
60469;DHT22;46316;47.582;10.238;2022-07-10T08:32:26;16.70;75.80
60469;DHT22;46316;47.582;10.238;2022-07-10T08:34:53;16.90;77.20
60469;DHT22;46316;47.582;10.238;2022-07-10T08:37:19;16.90;76.20
60469;DHT22;46316;47.582;10.238;2022-07-10T08:39:47;16.80;74.60
60469;DHT22;46316;47.582;10.238;2022-07-10T08:42:15;16.90;74.80
60469;DHT22;46316;47.582;10.238;2022-07-10T08:44:41;17.00;75.00
60469;DHT22;46316;47.582;10.238;2022-07-10T08:47:06;17.10;74.20
60469;DHT22;46316;47.582;10.238;2022-07-10T08:49:32;17.20;73.50
60469;DHT22;46316;47.582;10.238;2022-07-10T08:52:08;17.40;73.20
60469;DHT22;46316;47.582;10.238;2022-07-10T08:54:34;17.50;72.80
60469;DHT22;46316;47.582;10.238;2022-07-10T08:57:02;17.80;72.00
60469;DHT22;46316;47.582;10.238;2022-07-10T08:59:29;18.00;71.00
60469;DHT22;46316;47.582;10.238;2022-07-10T09:01:55;18.20;70.80
60469;DHT22;46316;47.582;10.238;2022-07-10T09:04:24;18.40;69.60
60469;DHT22;46316;47.582;10.238;2022-07-10T09:06:53;18.50;69.40
60469;DHT22;46316;47.582;10.238;2022-07-10T09:09:19;18.50;68.40
60469;DHT22;46316;47.582;10.238;2022-07-10T09:11:45;18.40;69.00
60469;DHT22;46316;47.582;10.238;2022-07-10T09:14:14;18.40;69.00
60469;DHT22;46316;47.582;10.238;2022-07-10T09:16:42;18.30;69.00
60469;DHT22;46316;47.582;10.238;2022-07-10T09:22:09;18.40;71.80
60469;DHT22;46316;47.582;10.238;2022-07-10T09:24:40;18.40;71.00
60469;DHT22;46316;47.582;10.238;2022-07-10T09:27:06;18.50;71.20
60469;DHT22;46316;47.582;10.238;2022-07-10T09:29:44;18.50;69.00
60469;DHT22;46316;47.582;10.238;2022-07-10T09:32:11;18.60;69.80
60469;DHT22;46316;47.582;10.238;2022-07-10T09:34:41;18.90;67.30
60469;DHT22;46316;47.582;10.238;2022-07-10T09:40:10;18.60;68.70
60469;DHT22;46316;47.582;10.238;2022-07-10T09:42:37;18.70;67.70
60469;DHT22;46316;47.582;10.238;2022-07-10T09:47:53;18.90;68.10
60469;DHT22;46316;47.582;10.238;2022-07-10T09:50:23;19.00;68.80
60469;DHT22;46316;47.582;10.238;2022-07-10T09:52:58;19.40;68.00
60469;DHT22;46316;47.582;10.238;2022-07-10T09:55:26;20.60;66.40
60469;DHT22;46316;47.582;10.238;2022-07-10T09:57:58;21.20;60.70
60469;DHT22;46316;47.582;10.238;2022-07-10T10:00:26;21.20;60.00
60469;DHT22;46316;47.582;10.238;2022-07-10T10:02:56;20.90;60.50
60469;DHT22;46316;47.582;10.238;2022-07-10T10:05:45;20.40;61.10
60469;DHT22;46316;47.582;10.238;2022-07-10T10:08:12;20.10;61.90
60469;DHT22;46316;47.582;10.238;2022-07-10T10:10:43;19.90;60.50
60469;DHT22;46316;47.582;10.238;2022-07-10T10:13:11;19.90;59.80
60469;DHT22;46316;47.582;10.238;2022-07-10T10:15:37;20.00;60.60
60469;DHT22;46316;47.582;10.238;2022-07-10T10:18:03;20.60;62.10
60469;DHT22;46316;47.582;10.238;2022-07-10T10:20:34;21.60;58.60
60469;DHT22;46316;47.582;10.238;2022-07-10T10:23:04;22.10;56.60
60469;DHT22;46316;47.582;10.238;2022-07-10T10:25:32;22.40;56.80
60469;DHT22;46316;47.582;10.238;2022-07-10T10:28:01;22.70;54.90
60469;DHT22;46316;47.582;10.238;2022-07-10T10:30:28;22.70;56.00
60469;DHT22;46316;47.582;10.238;2022-07-10T10:33:00;23.10;54.00
60469;DHT22;46316;47.582;10.238;2022-07-10T10:35:44;23.60;51.80
60469;DHT22;46316;47.582;10.238;2022-07-10T10:38:13;24.30;51.80
60469;DHT22;46316;47.582;10.238;2022-07-10T10:40:39;24.40;47.80
60469;DHT22;46316;47.582;10.238;2022-07-10T10:43:23;24.30;50.50
60469;DHT22;46316;47.582;10.238;2022-07-10T10:45:50;24.80;50.70
60469;DHT22;46316;47.582;10.238;2022-07-10T10:48:18;24.90;51.00
60469;DHT22;46316;47.582;10.238;2022-07-10T10:50:55;25.10;51.10
60469;DHT22;46316;47.582;10.238;2022-07-10T10:53:24;25.30;49.40
60469;DHT22;46316;47.582;10.238;2022-07-10T10:58:43;25.60;49.00
60469;DHT22;46316;47.582;10.238;2022-07-10T11:06:49;25.40;48.40
60469;DHT22;46316;47.582;10.238;2022-07-10T11:09:33;25.00;49.30
60469;DHT22;46316;47.582;10.238;2022-07-10T11:15:22;25.50;47.30
60469;DHT22;46316;47.582;10.238;2022-07-10T11:17:48;25.40;50.40
60469;DHT22;46316;47.582;10.238;2022-07-10T11:20:13;25.60;47.20
60469;DHT22;46316;47.582;10.238;2022-07-10T11:26:13;25.90;45.10
60469;DHT22;46316;47.582;10.238;2022-07-10T11:28:55;25.50;49.00
60469;DHT22;46316;47.582;10.238;2022-07-10T11:31:23;25.40;48.20
60469;DHT22;46316;47.582;10.238;2022-07-10T11:33:51;25.10;47.90
60469;DHT22;46316;47.582;10.238;2022-07-10T11:36:19;24.80;49.50
60469;DHT22;46316;47.582;10.238;2022-07-10T11:38:47;24.70;48.40
60469;DHT22;46316;47.582;10.238;2022-07-10T11:41:18;24.60;48.90
60469;DHT22;46316;47.582;10.238;2022-07-10T11:43:49;24.50;49.00
60469;DHT22;46316;47.582;10.238;2022-07-10T11:46:15;24.40;49.50
60469;DHT22;46316;47.582;10.238;2022-07-10T11:48:41;24.40;48.80
60469;DHT22;46316;47.582;10.238;2022-07-10T11:51:28;24.40;48.30
60469;DHT22;46316;47.582;10.238;2022-07-10T11:53:55;24.60;48.80
60469;DHT22;46316;47.582;10.238;2022-07-10T11:56:21;24.60;48.30
60469;DHT22;46316;47.582;10.238;2022-07-10T11:59:03;24.70;48.70
60469;DHT22;46316;47.582;10.238;2022-07-10T12:01:32;24.70;46.00
60469;DHT22;46316;47.582;10.238;2022-07-10T12:04:05;24.70;45.90
60469;DHT22;46316;47.582;10.238;2022-07-10T12:06:33;25.00;46.10
60469;DHT22;46316;47.582;10.238;2022-07-10T12:09:04;25.10;45.30
60469;DHT22;46316;47.582;10.238;2022-07-10T12:11:30;24.90;45.20
60469;DHT22;46316;47.582;10.238;2022-07-10T12:14:15;25.30;46.60
60469;DHT22;46316;47.582;10.238;2022-07-10T12:16:44;25.50;44.50
60469;DHT22;46316;47.582;10.238;2022-07-10T12:19:13;25.50;43.50
60469;DHT22;46316;47.582;10.238;2022-07-10T12:21:43;25.70;42.80
60469;DHT22;46316;47.582;10.238;2022-07-10T12:24:09;25.50;44.10
60469;DHT22;46316;47.582;10.238;2022-07-10T12:26:38;24.90;44.30
60469;DHT22;46316;47.582;10.238;2022-07-10T12:29:04;24.30;45.30
60469;DHT22;46316;47.582;10.238;2022-07-10T12:31:32;23.90;47.10
60469;DHT22;46316;47.582;10.238;2022-07-10T12:34:07;23.50;47.50
60469;DHT22;46316;47.582;10.238;2022-07-10T12:36:46;23.10;48.80
60469;DHT22;46316;47.582;10.238;2022-07-10T12:39:14;22.80;49.40
60469;DHT22;46316;47.582;10.238;2022-07-10T12:41:58;22.40;48.70
60469;DHT22;46316;47.582;10.238;2022-07-10T12:44:35;22.20;50.00
60469;DHT22;46316;47.582;10.238;2022-07-10T12:47:15;21.90;51.00
60469;DHT22;46316;47.582;10.238;2022-07-10T12:50:04;22.30;51.00
60469;DHT22;46316;47.582;10.238;2022-07-10T12:52:37;22.50;49.60
60469;DHT22;46316;47.582;10.238;2022-07-10T13:00:27;22.90;50.30
60469;DHT22;46316;47.582;10.238;2022-07-10T13:03:04;22.90;48.90
60469;DHT22;46316;47.582;10.238;2022-07-10T13:05:32;23.00;48.90
60469;DHT22;46316;47.582;10.238;2022-07-10T13:08:05;22.90;49.80
60469;DHT22;46316;47.582;10.238;2022-07-10T13:10:33;22.80;49.90
60469;DHT22;46316;47.582;10.238;2022-07-10T13:12:58;22.80;51.20
60469;DHT22;46316;47.582;10.238;2022-07-10T13:15:24;22.70;50.70
60469;DHT22;46316;47.582;10.238;2022-07-10T13:17:50;23.00;49.90
60469;DHT22;46316;47.582;10.238;2022-07-10T13:20:16;23.20;51.20
60469;DHT22;46316;47.582;10.238;2022-07-10T13:22:41;23.50;50.20
60469;DHT22;46316;47.582;10.238;2022-07-10T13:25:08;23.50;48.20
60469;DHT22;46316;47.582;10.238;2022-07-10T13:27:34;23.70;47.70
60469;DHT22;46316;47.582;10.238;2022-07-10T13:30:02;23.60;49.30
60469;DHT22;46316;47.582;10.238;2022-07-10T13:32:28;23.50;50.80
60469;DHT22;46316;47.582;10.238;2022-07-10T13:34:54;23.40;50.20
60469;DHT22;46316;47.582;10.238;2022-07-10T13:37:20;23.30;48.70
60469;DHT22;46316;47.582;10.238;2022-07-10T13:39:45;23.10;49.60
60469;DHT22;46316;47.582;10.238;2022-07-10T13:42:11;23.00;49.30
60469;DHT22;46316;47.582;10.238;2022-07-10T13:44:36;22.90;50.40
60469;DHT22;46316;47.582;10.238;2022-07-10T13:47:02;22.60;50.90
60469;DHT22;46316;47.582;10.238;2022-07-10T13:49:28;22.40;51.40
60469;DHT22;46316;47.582;10.238;2022-07-10T13:51:54;22.40;50.70
60469;DHT22;46316;47.582;10.238;2022-07-10T13:54:19;22.40;50.10
60469;DHT22;46316;47.582;10.238;2022-07-10T13:56:45;22.50;50.00
60469;DHT22;46316;47.582;10.238;2022-07-10T13:59:10;22.80;51.20
60469;DHT22;46316;47.582;10.238;2022-07-10T14:01:36;23.00;50.10
60469;DHT22;46316;47.582;10.238;2022-07-10T14:04:01;23.20;48.70
60469;DHT22;46316;47.582;10.238;2022-07-10T14:06:27;23.40;48.60
60469;DHT22;46316;47.582;10.238;2022-07-10T14:09:14;23.60;48.80
60469;DHT22;46316;47.582;10.238;2022-07-10T14:11:40;23.60;47.70
60469;DHT22;46316;47.582;10.238;2022-07-10T14:14:06;23.60;46.90
60469;DHT22;46316;47.582;10.238;2022-07-10T14:16:32;23.60;48.50
60469;DHT22;46316;47.582;10.238;2022-07-10T14:18:57;23.60;47.90
60469;DHT22;46316;47.582;10.238;2022-07-10T14:21:23;23.50;47.70
60469;DHT22;46316;47.582;10.238;2022-07-10T14:23:52;23.50;48.50
60469;DHT22;46316;47.582;10.238;2022-07-10T14:26:18;23.40;48.10
60469;DHT22;46316;47.582;10.238;2022-07-10T14:28:43;23.70;47.50
60469;DHT22;46316;47.582;10.238;2022-07-10T14:31:09;23.70;48.00
60469;DHT22;46316;47.582;10.238;2022-07-10T14:33:35;23.50;47.30
60469;DHT22;46316;47.582;10.238;2022-07-10T14:36:02;23.50;47.70
60469;DHT22;46316;47.582;10.238;2022-07-10T14:38:28;23.50;49.50
60469;DHT22;46316;47.582;10.238;2022-07-10T14:40:55;23.70;47.70
60469;DHT22;46316;47.582;10.238;2022-07-10T14:43:21;23.60;47.50
60469;DHT22;46316;47.582;10.238;2022-07-10T14:45:47;23.70;47.40
60469;DHT22;46316;47.582;10.238;2022-07-10T14:48:13;23.80;48.00
60469;DHT22;46316;47.582;10.238;2022-07-10T14:50:39;23.70;48.10
60469;DHT22;46316;47.582;10.238;2022-07-10T14:53:05;23.70;46.60
60469;DHT22;46316;47.582;10.238;2022-07-10T14:55:31;23.60;47.10
60469;DHT22;46316;47.582;10.238;2022-07-10T14:57:57;23.60;46.90
60469;DHT22;46316;47.582;10.238;2022-07-10T15:00:22;23.50;48.20
60469;DHT22;46316;47.582;10.238;2022-07-10T15:02:48;23.50;48.10
60469;DHT22;46316;47.582;10.238;2022-07-10T15:05:13;23.30;48.70
60469;DHT22;46316;47.582;10.238;2022-07-10T15:07:39;23.00;49.80
60469;DHT22;46316;47.582;10.238;2022-07-10T15:10:05;22.90;50.40
60469;DHT22;46316;47.582;10.238;2022-07-10T15:12:31;22.70;50.70
60469;DHT22;46316;47.582;10.238;2022-07-10T15:14:58;22.70;49.70
60469;DHT22;46316;47.582;10.238;2022-07-10T15:17:23;22.40;49.90
60469;DHT22;46316;47.582;10.238;2022-07-10T15:19:50;22.10;50.80
60469;DHT22;46316;47.582;10.238;2022-07-10T15:22:16;22.10;52.30
60469;DHT22;46316;47.582;10.238;2022-07-10T15:24:43;22.20;52.50
60469;DHT22;46316;47.582;10.238;2022-07-10T15:27:10;22.30;50.60
60469;DHT22;46316;47.582;10.238;2022-07-10T15:29:35;22.20;50.00
60469;DHT22;46316;47.582;10.238;2022-07-10T15:32:01;22.10;50.50
60469;DHT22;46316;47.582;10.238;2022-07-10T15:34:26;22.00;50.80
60469;DHT22;46316;47.582;10.238;2022-07-10T15:36:52;22.10;51.40
60469;DHT22;46316;47.582;10.238;2022-07-10T15:39:18;22.10;49.50
60469;DHT22;46316;47.582;10.238;2022-07-10T15:41:44;21.90;49.20
60469;DHT22;46316;47.582;10.238;2022-07-10T15:44:12;21.90;50.40
60469;DHT22;46316;47.582;10.238;2022-07-10T15:46:38;22.20;50.30